Time;durP1;ratioP1;P1;durP2;ratioP2;P2;SDS_P1;SDS_P2;PMS_P1;PMS_P2;Temp;Humidity;BMP_temperature;BMP_pressure;BME280_temperature;BME280_humidity;BME280_pressure;Samples;Min_cycle;Max_cycle;Signal;HPM_P1;HPM_P2
2022/01/22 00:00:43;;;;;;;;;36.00;30.00;;;;;7.68;53.46;103237.22;4990911;27;45565;-72
2022/01/22 00:03:09;;;;;;;;;26.75;23.75;;;;;7.94;54.02;103276.88;5014707;27;45939;-76
2022/01/22 00:05:35;;;;;;;;;22.75;20.00;;;;;7.61;53.74;103217.72;4999443;27;45582;-75
2022/01/22 00:08:02;;;;;;;;;20.50;16.00;;;;;7.68;53.88;103228.50;4999975;27;45996;-74
2022/01/22 00:10:28;;;;;;;;;19.50;13.75;;;;;7.78;54.45;103251.66;5062020;27;45551;-76
2022/01/22 00:15:25;;;;;;;;;15.75;11.75;;;;;7.36;53.88;103165.09;4986073;27;46024;-75
2022/01/22 00:17:52;;;;;;;;;11.75;9.00;;;;;7.47;54.02;103187.41;4985822;27;45725;-76
2022/01/22 00:20:20;;;;;;;;;10.50;10.50;;;;;8.01;54.01;103278.97;5000109;27;46095;-74
2022/01/22 00:22:46;;;;;;;;;10.50;10.00;;;;;8.01;54.12;103265.94;4989984;27;46054;-74
2022/01/22 00:25:14;;;;;;;;;11.00;9.00;;;;;8.01;53.56;103268.53;4988022;27;45389;-75
2022/01/22 00:27:43;;;;;;;;;9.50;9.50;;;;;7.50;53.62;103184.06;4989301;27;45808;-75
2022/01/22 00:30:12;;;;;;;;;9.75;8.25;;;;;7.57;53.62;103189.72;4990792;27;45466;-75
2022/01/22 00:32:38;;;;;;;;;8.00;6.75;;;;;7.51;53.58;103188.47;4989428;27;48043;-74
2022/01/22 00:35:05;;;;;;;;;11.75;7.00;;;;;7.43;53.80;103164.59;4991142;27;45508;-74
2022/01/22 00:37:32;;;;;;;;;9.25;6.75;;;;;7.49;54.03;103159.69;4991408;27;45926;-74
2022/01/22 00:39:57;;;;;;;;;9.75;6.25;;;;;8.03;53.80;103261.69;4991594;27;45334;-76
2022/01/22 00:42:23;;;;;;;;;11.00;9.00;;;;;7.67;54.10;103198.91;4996689;27;45507;-74
2022/01/22 00:44:51;;;;;;;;;9.75;8.00;;;;;7.94;53.83;103241.22;4978534;28;45452;-72
2022/01/22 00:47:17;;;;;;;;;9.25;8.00;;;;;7.34;54.37;103131.09;4983095;28;45669;-73
2022/01/22 00:49:44;;;;;;;;;9.00;9.00;;;;;7.99;53.94;103263.22;4990328;27;45491;-74
2022/01/22 00:52:09;;;;;;;;;12.25;7.75;;;;;7.34;54.04;103151.97;4994185;27;45558;-73
2022/01/22 00:54:35;;;;;;;;;8.50;8.00;;;;;7.26;53.80;103127.19;4991012;27;45431;-73
2022/01/22 00:57:01;;;;;;;;;8.00;7.00;;;;;7.38;54.04;103153.00;4991399;27;45756;-73
2022/01/22 00:59:27;;;;;;;;;8.00;8.00;;;;;7.61;54.01;103185.53;4992857;27;45497;-72
2022/01/22 01:01:52;;;;;;;;;9.00;7.75;;;;;7.61;54.25;103201.19;4992074;27;45372;-72
2022/01/22 01:04:18;;;;;;;;;9.25;9.25;;;;;8.01;54.28;103266.81;4979421;27;45338;-73
2022/01/22 01:06:44;;;;;;;;;9.00;8.75;;;;;7.80;54.40;103223.94;4991138;27;45555;-73
2022/01/22 01:09:11;;;;;;;;;13.75;10.00;;;;;7.52;54.15;103169.41;4991288;27;45497;-72
2022/01/22 01:11:44;;;;;;;;;14.00;10.00;;;;;7.08;54.61;103103.63;4991100;27;45608;-72
2022/01/22 01:14:14;;;;;;;;;10.25;9.00;;;;;7.78;54.07;103215.13;4989984;27;45512;-73
2022/01/22 01:16:57;;;;;;;;;8.75;7.00;;;;;8.05;54.16;103254.84;4988431;27;45436;-71
2022/01/22 01:35:30;;;;;;;;;8.50;7.75;;;;;8.03;54.92;103246.94;4993139;27;45344;-73
2022/01/22 01:37:58;;;;;;;;;9.25;9.00;;;;;7.91;54.58;103222.78;4996699;27;45368;-73
2022/01/22 01:40:26;;;;;;;;;11.25;8.50;;;;;8.03;54.70;103241.72;4997954;27;45429;-74
2022/01/22 01:43:20;;;;;;;;;9.00;9.00;;;;;7.34;55.18;103127.59;4978373;27;45458;-74
2022/01/22 01:45:38;;;;;;;;;11.25;8.00;;;;;8.04;55.18;103245.19;4993070;27;45355;-72
2022/01/22 01:48:10;;;;;;;;;8.25;8.00;;;;;7.04;55.02;103066.91;4997147;27;45303;-72
2022/01/22 01:50:38;;;;;;;;;10.75;9.00;;;;;7.59;54.70;103166.28;4994133;27;45471;-73
2022/01/22 01:53:17;;;;;;;;;9.50;9.50;;;;;7.49;55.19;103156.19;4994244;27;46376;-72
2022/01/22 01:58:24;;;;;;;;;6.00;6.00;;;;;7.58;54.53;103169.72;4987550;27;45739;-75
2022/01/22 02:00:50;;;;;;;;;6.50;5.00;;;;;7.92;54.52;103218.47;4996842;27;45527;-76
2022/01/22 02:03:16;;;;;;;;;14.00;9.00;;;;;7.54;54.87;103152.13;4993060;27;45504;-76
2022/01/22 02:05:42;;;;;;;;;13.25;10.00;;;;;7.40;54.66;103134.06;4993388;27;45682;-75
2022/01/22 02:08:08;;;;;;;;;10.00;7.75;;;;;8.06;54.57;103260.13;4993475;27;45402;-77
2022/01/22 02:10:40;;;;;;;;;10.00;8.50;;;;;8.06;54.85;103243.56;4994550;27;45466;-73
2022/01/22 02:14:02;;;;;;;;;10.25;9.75;;;;;7.49;55.17;103149.28;4994046;27;45414;-75
2022/01/22 02:24:05;;;;;;;;;11.25;9.25;;;;;8.04;54.71;103230.47;4993820;27;45493;-75
2022/01/22 02:26:31;;;;;;;;;10.25;8.50;;;;;7.77;54.64;103190.75;4994210;27;45436;-75
2022/01/22 02:28:56;;;;;;;;;11.75;10.50;;;;;7.71;54.49;103176.47;4973230;28;45500;-74
2022/01/22 02:36:42;;;;;;;;;12.75;9.75;;;;;7.88;55.11;103195.63;4973577;28;45448;-73
2022/01/22 02:39:19;;;;;;;;;11.00;10.50;;;;;7.96;55.34;103203.06;4974787;28;45458;-75
2022/01/22 02:41:48;;;;;;;;;11.25;10.00;;;;;8.09;55.05;103230.69;4977878;28;46085;-74
2022/01/22 02:44:34;;;;;;;;;10.50;9.75;;;;;7.97;54.54;103207.47;4977228;28;45461;-75
2022/01/22 02:47:06;;;;;;;;;9.75;9.00;;;;;7.78;54.79;103165.56;4976115;28;45279;-74
2022/01/22 02:49:31;;;;;;;;;13.75;10.00;;;;;8.11;54.69;103222.94;4973389;28;45481;-74
2022/01/22 02:52:03;;;;;;;;;13.00;10.00;;;;;8.11;54.27;103231.66;4973834;28;45334;-74
2022/01/22 02:54:29;;;;;;;;;14.00;10.00;;;;;8.12;54.76;103222.13;4973239;28;45627;-75
2022/01/22 02:56:55;;;;;;;;;10.00;9.00;;;;;7.31;54.80;103090.91;4955612;28;45581;-74
2022/01/22 02:59:23;;;;;;;;;10.50;9.50;;;;;8.12;54.69;103216.91;4955054;28;45768;-74
2022/01/22 03:01:50;;;;;;;;;12.75;11.25;;;;;7.97;54.93;103196.13;4973035;28;45705;-75
2022/01/22 03:04:16;;;;;;;;;9.75;8.75;;;;;7.42;54.75;103111.53;4972658;28;45539;-76
2022/01/22 03:06:42;;;;;;;;;12.00;9.75;;;;;7.95;55.32;103208.19;4971421;28;45375;-74
2022/01/22 03:09:11;;;;;;;;;11.00;11.00;;;;;8.07;55.20;103217.56;4972570;28;45539;-74
2022/01/22 03:22:22;;;;;;;;;9.75;8.75;;;;;7.88;55.10;103178.28;4972690;28;45621;-74
2022/01/22 03:27:33;;;;;;;;;10.00;10.00;;;;;7.59;55.34;103141.13;4974810;28;45556;-71
2022/01/22 03:30:00;;;;;;;;;10.50;9.50;;;;;7.60;54.97;103132.47;4972610;28;45399;-73
2022/01/22 03:32:30;;;;;;;;;12.75;10.25;;;;;7.74;54.85;103166.25;4975650;28;45679;-75
2022/01/22 03:35:00;;;;;;;;;11.00;9.75;;;;;7.51;54.55;103134.59;4972442;28;45599;-75
2022/01/22 03:37:26;;;;;;;;;12.00;11.25;;;;;7.71;55.17;103159.16;4972355;28;45611;-74
2022/01/22 03:39:53;;;;;;;;;8.00;7.00;;;;;7.96;54.67;103189.13;4972571;28;45330;-74
2022/01/22 03:42:19;;;;;;;;;11.00;10.50;;;;;7.44;54.82;103116.84;4971549;28;45551;-75
2022/01/22 03:44:44;;;;;;;;;12.75;11.00;;;;;7.76;54.94;103178.53;4978196;27;45386;-75
2022/01/22 03:47:10;;;;;;;;;14.00;10.75;;;;;7.10;55.60;103059.44;4973152;28;45480;-76
2022/01/22 03:49:36;;;;;;;;;10.00;9.00;;;;;8.07;55.09;103234.94;4972723;28;45300;-74
2022/01/22 03:52:02;;;;;;;;;17.50;12.75;;;;;7.48;55.21;103139.66;4972749;28;45352;-73
2022/01/22 03:54:28;;;;;;;;;14.25;12.00;;;;;7.72;55.25;103176.56;4972595;28;45780;-74
2022/01/22 03:56:53;;;;;;;;;11.50;9.50;;;;;7.22;55.55;103081.81;4972164;28;45430;-73
2022/01/22 03:59:20;;;;;;;;;11.00;10.50;;;;;8.07;55.46;103229.72;4972022;28;45476;-75
2022/01/22 04:04:30;;;;;;;;;7.75;6.00;;;;;7.75;55.53;103168.00;4972088;28;45540;-76
2022/01/22 04:09:25;;;;;;;;;12.50;9.50;;;;;7.74;55.76;103176.66;4990575;27;45626;-75
2022/01/22 04:11:52;;;;;;;;;12.50;11.25;;;;;8.07;55.81;103224.50;4990853;27;45541;-75
2022/01/22 04:14:23;;;;;;;;;11.00;10.50;;;;;8.06;55.58;103231.41;4987533;28;47209;-73
2022/01/22 04:25:02;;;;;;;;;15.75;14.00;;;;;7.93;55.46;103204.63;4995869;28;45860;-75
2022/01/22 04:27:28;;;;;;;;;13.50;9.75;;;;;8.00;56.14;103212.84;4977113;27;45339;-74
2022/01/22 04:29:59;;;;;;;;;14.25;11.50;;;;;7.78;55.99;103176.91;4991822;27;45358;-76
2022/01/22 04:32:30;;;;;;;;;14.25;11.50;;;;;7.94;55.94;103207.28;4974388;28;45410;-75
2022/01/22 04:34:57;;;;;;;;;11.25;11.25;;;;;7.89;56.04;103194.84;4991151;27;45499;-75
2022/01/22 04:37:24;;;;;;;;;15.00;13.50;;;;;7.76;56.20;103170.72;4973562;28;45563;-74
2022/01/22 04:39:51;;;;;;;;;17.00;14.25;;;;;7.44;55.95;103124.66;4991233;27;45506;-73
2022/01/22 04:42:18;;;;;;;;;18.00;14.00;;;;;7.34;56.04;103096.31;4991413;27;45465;-73
2022/01/22 04:45:00;;;;;;;;;15.00;11.00;;;;;7.55;56.12;103122.63;4993290;27;46259;-73
2022/01/22 04:52:42;;;;;;;;;18.00;13.75;;;;;8.03;56.33;103218.22;4982008;28;45652;-74
2022/01/22 04:55:11;;;;;;;;;19.25;14.50;;;;;7.95;57.05;103203.88;4985660;28;45431;-75
2022/01/22 04:57:46;;;;;;;;;19.25;18.50;;;;;7.05;56.68;103051.38;4977861;27;45599;-74
2022/01/22 05:00:14;;;;;;;;;25.75;19.75;;;;;7.53;56.64;103126.88;4976586;28;45433;-75
2022/01/22 05:02:39;;;;;;;;;24.50;18.00;;;;;7.97;56.72;103202.25;4991436;27;45848;-76
2022/01/22 05:05:07;;;;;;;;;18.75;16.00;;;;;7.61;56.35;103133.38;4974750;28;45654;-73
2022/01/22 05:07:33;;;;;;;;;25.00;22.50;;;;;7.83;56.94;103169.28;4976272;28;45553;-73
2022/01/22 05:09:59;;;;;;;;;31.50;24.75;;;;;8.15;56.73;103225.78;4978047;28;45607;-73
2022/01/22 05:12:24;;;;;;;;;20.00;19.00;;;;;8.03;56.24;103205.16;4974471;28;45715;-73
2022/01/22 05:14:51;;;;;;;;;23.50;21.50;;;;;7.99;56.31;103184.94;4973435;28;46554;-74
2022/01/22 05:17:18;;;;;;;;;26.00;21.00;;;;;8.25;56.79;103216.72;4974412;28;45399;-75
2022/01/22 05:19:57;;;;;;;;;22.00;18.25;;;;;8.26;56.49;103224.63;4975499;28;45245;-74
2022/01/22 05:22:48;;;;;;;;;31.25;26.50;;;;;7.90;56.37;103152.25;4980070;28;45548;-76
2022/01/22 05:25:14;;;;;;;;;25.25;18.25;;;;;7.71;56.05;103126.91;4979498;28;45652;-75
2022/01/22 05:27:55;;;;;;;;;30.75;24.25;;;;;8.00;56.09;103164.97;4994838;27;45345;-75
2022/01/22 05:38:23;;;;;;;;;24.50;21.75;;;;;7.68;55.64;103117.22;4999670;27;45819;-74
2022/01/22 05:40:49;;;;;;;;;22.50;20.00;;;;;8.34;56.08;103237.19;5001401;27;45330;-74
2022/01/22 05:43:16;;;;;;;;;30.00;24.75;;;;;8.32;55.70;103224.03;5001206;28;45409;-73
2022/01/22 05:45:42;;;;;;;;;19.75;18.50;;;;;8.32;55.61;103229.25;4997597;27;45555;-73
2022/01/22 05:48:08;;;;;;;;;24.25;18.25;;;;;7.68;55.75;103118.94;4980059;28;45473;-74
2022/01/22 05:50:48;;;;;;;;;22.25;21.25;;;;;7.64;55.80;103126.63;4994949;27;45406;-75
2022/01/22 05:53:36;;;;;;;;;27.25;23.25;;;;;7.73;55.49;103136.63;4993310;27;45477;-74
2022/01/22 06:01:20;;;;;;;;;30.25;27.25;;;;;7.38;55.94;103098.25;4994973;27;45415;-74
2022/01/22 06:03:47;;;;;;;;;21.75;20.25;;;;;7.67;56.06;103153.69;4997096;27;45644;-74
2022/01/22 06:06:13;;;;;;;;;26.75;23.75;;;;;7.94;55.72;103186.41;4993324;28;45601;-76
2022/01/22 06:08:51;;;;;;;;;31.25;26.75;;;;;7.40;56.32;103097.56;4993355;27;45506;-75
2022/01/22 06:11:22;;;;;;;;;26.50;24.25;;;;;8.29;56.07;103250.00;4993294;27;45318;-76
2022/01/22 06:13:49;;;;;;;;;29.00;24.50;;;;;8.00;55.94;103191.06;4993391;27;45485;-75
2022/01/22 06:16:17;;;;;;;;;33.00;26.75;;;;;7.92;56.75;103176.72;4992811;27;45471;-75
2022/01/22 06:18:44;;;;;;;;;30.50;25.25;;;;;8.36;56.20;103252.09;4992781;27;45520;-75
2022/01/22 06:21:10;;;;;;;;;31.75;26.75;;;;;7.62;56.08;103117.81;4992132;27;45540;-75
2022/01/22 06:23:37;;;;;;;;;27.25;21.00;;;;;7.98;55.82;103183.16;4992621;27;45391;-73
2022/01/22 06:26:03;;;;;;;;;30.00;21.25;;;;;8.36;54.87;103246.88;4993236;27;45451;-76
2022/01/22 06:28:30;;;;;;;;;28.75;22.75;;;;;7.91;55.49;103170.59;4992988;27;45482;-74
2022/01/22 06:30:57;;;;;;;;;28.00;24.75;;;;;8.33;54.92;103244.13;4993042;27;45386;-76
2022/01/22 06:33:24;;;;;;;;;30.50;22.50;;;;;7.82;55.96;103163.19;4993084;27;45733;-76
2022/01/22 06:35:49;;;;;;;;;23.75;23.25;;;;;7.70;55.36;103151.22;4978583;27;47743;-74
2022/01/22 06:38:16;;;;;;;;;25.50;23.75;;;;;7.49;55.27;103101.44;4993263;27;45569;-75
2022/01/22 06:43:08;;;;;;;;;32.75;28.75;;;;;8.01;55.22;103198.06;4992479;27;45420;-75
2022/01/22 06:45:34;;;;;;;;;30.25;24.75;;;;;8.04;55.18;103212.19;4992542;27;46059;-76
2022/01/22 06:48:00;;;;;;;;;35.25;26.50;;;;;8.23;55.58;103257.50;4992686;27;45347;-76
2022/01/22 06:50:25;;;;;;;;;12.50;9.00;;;;;7.33;55.81;103092.81;4983121;27;45555;-75
2022/01/22 06:52:58;;;;;;;;;27.75;24.75;;;;;7.75;55.27;103175.84;4974808;28;45748;-76
2022/01/22 06:55:43;;;;;;;;;34.75;25.25;;;;;8.18;55.43;103254.66;4975833;28;46174;-73
2022/01/22 06:58:08;;;;;;;;;32.75;28.50;;;;;8.10;55.61;103247.25;4984468;27;45484;-75
2022/01/22 07:00:34;;;;;;;;;31.50;26.00;;;;;8.13;56.11;103261.34;4992437;27;45549;-75
2022/01/22 07:03:02;;;;;;;;;30.50;27.75;;;;;8.08;55.47;103253.28;4992851;27;45599;-77
2022/01/22 07:05:28;;;;;;;;;34.00;28.00;;;;;7.71;55.33;103187.84;4994416;27;46516;-77
2022/01/22 07:07:54;;;;;;;;;47.50;34.75;;;;;7.56;55.64;103158.31;4993473;27;45502;-76
2022/01/22 07:10:20;;;;;;;;;31.00;27.25;;;;;8.12;55.67;103264.78;4992828;27;45512;-76
2022/01/22 07:12:46;;;;;;;;;26.00;25.00;;;;;7.59;55.51;103176.72;4992811;27;45670;-76
2022/01/22 07:15:11;;;;;;;;;28.00;22.50;;;;;7.80;55.82;103230.03;4992266;27;46105;-76
2022/01/22 07:17:40;;;;;;;;;24.25;19.75;;;;;7.84;55.96;103218.06;4991751;27;45252;-75
2022/01/22 07:20:14;;;;;;;;;27.25;25.00;;;;;7.90;56.01;103228.84;4991727;27;45679;-75
2022/01/22 07:23:00;;;;;;;;;26.50;23.50;;;;;8.06;56.28;103259.25;4974926;27;45478;-77
2022/01/22 07:25:26;;;;;;;;;25.50;23.25;;;;;7.51;56.21;103170.22;4992158;27;45729;-76
2022/01/22 07:27:52;;;;;;;;;29.25;25.00;;;;;8.10;56.45;103261.19;4990633;27;45490;-75
2022/01/22 07:30:17;;;;;;;;;30.75;24.25;;;;;8.08;56.17;103262.84;4991852;27;45873;-76
2022/01/22 07:32:44;;;;;;;;;27.50;26.50;;;;;8.05;56.51;103260.06;4993187;27;45369;-76
2022/01/22 07:35:18;;;;;;;;;38.50;29.00;;;;;7.93;56.18;103235.94;4996252;27;46636;-76
2022/01/22 07:37:44;;;;;;;;;29.75;23.50;;;;;8.10;56.52;103278.59;4996196;27;45369;-75
2022/01/22 07:40:12;;;;;;;;;31.25;29.25;;;;;7.95;56.24;103250.84;4993619;27;45336;-74
2022/01/22 07:42:39;;;;;;;;;29.25;26.00;;;;;7.68;55.87;103202.41;4992712;27;45471;-75
2022/01/22 07:45:06;;;;;;;;;28.50;27.25;;;;;7.51;56.33;103168.50;4996251;27;45425;-73
2022/01/22 07:47:31;;;;;;;;;38.50;28.50;;;;;7.28;56.07;103138.59;4976882;27;45518;-75
2022/01/22 07:49:58;;;;;;;;;29.00;25.25;;;;;8.11;56.34;103275.16;4992260;27;45655;-75
2022/01/22 07:52:24;;;;;;;;;31.75;25.00;;;;;7.81;56.24;103217.91;4991697;27;45735;-78
2022/01/22 07:54:50;;;;;;;;;32.75;26.50;;;;;7.84;56.37;103246.78;4974272;28;48034;-76
2022/01/22 07:57:16;;;;;;;;;34.75;32.00;;;;;7.91;56.53;103267.16;4992192;27;45789;-75
2022/01/22 07:59:42;;;;;;;;;32.50;26.00;;;;;8.01;56.60;103286.81;4995095;27;45500;-74
2022/01/22 08:02:08;;;;;;;;;34.00;26.50;;;;;7.17;56.11;103151.06;4991917;27;45304;-75
2022/01/22 08:04:34;;;;;;;;;30.00;29.50;;;;;7.97;56.39;103283.16;4991766;27;45366;-75
2022/01/22 08:07:03;;;;;;;;;38.00;31.00;;;;;7.99;56.36;103286.72;4991861;27;45557;-74
2022/01/22 08:09:30;;;;;;;;;35.25;31.25;;;;;7.66;56.06;103249.28;4984938;28;45825;-74
2022/01/22 08:11:55;;;;;;;;;37.50;27.25;;;;;7.90;56.60;103298.38;4992287;27;45299;-78
2022/01/22 08:14:21;;;;;;;;;33.25;28.75;;;;;7.31;56.85;103205.63;4984656;28;46961;-74
2022/01/22 08:16:47;;;;;;;;;31.25;29.75;;;;;7.19;57.05;103204.16;4973544;28;45308;-74
2022/01/22 08:19:14;;;;;;;;;38.00;30.00;;;;;7.33;56.85;103225.78;4976169;28;45522;-78
2022/01/22 08:21:40;;;;;;;;;30.25;26.25;;;;;6.64;57.27;103106.38;4976770;28;45526;-76
2022/01/22 08:24:06;;;;;;;;;31.50;25.50;;;;;7.43;57.40;103261.97;4976549;28;45563;-75
2022/01/22 08:26:37;;;;;;;;;33.25;28.50;;;;;7.56;56.82;103281.78;4971916;28;45422;-75
2022/01/22 08:29:04;;;;;;;;;35.00;26.50;;;;;7.52;58.43;103287.66;4971441;28;45509;-73
2022/01/22 08:36:42;;;;;;;;;37.00;29.25;;;;;7.54;58.21;103312.09;4974805;28;45438;-70
2022/01/22 08:39:07;;;;;;;;;28.25;26.75;;;;;7.50;57.62;103317.97;4971364;28;45862;-73
2022/01/22 08:41:35;;;;;;;;;40.00;32.25;;;;;7.39;58.08;103296.50;4971302;28;45758;-73
2022/01/22 08:44:02;;;;;;;;;33.75;29.00;;;;;7.53;57.73;103302.50;4971614;28;45594;-72
2022/01/22 08:46:28;;;;;;;;;40.25;34.00;;;;;7.33;57.74;103256.16;4954111;28;45736;-71
2022/01/22 08:48:54;;;;;;;;;30.50;25.00;;;;;7.65;57.31;103316.22;4974780;28;45455;-73
2022/01/22 08:51:21;;;;;;;;;48.00;33.50;;;;;7.65;59.83;103316.22;4984536;27;45322;-75
2022/01/22 08:53:48;;;;;;;;;36.50;33.00;;;;;7.69;58.31;103318.97;4994032;27;46530;-73
2022/01/22 08:56:15;;;;;;;;;33.00;24.75;;;;;7.40;57.53;103268.72;4991197;27;45564;-75
2022/01/22 08:58:40;;;;;;;;;35.50;30.75;;;;;7.62;57.69;103316.06;4990857;27;45354;-75
2022/01/22 09:01:07;;;;;;;;;35.50;30.25;;;;;7.70;57.21;103326.00;4990276;27;45544;-75
2022/01/22 09:03:33;;;;;;;;;36.25;28.75;;;;;6.99;57.71;103199.53;4973584;28;48126;-75
2022/01/22 09:05:59;;;;;;;;;36.25;30.50;;;;;7.72;57.31;103340.03;4990540;27;45642;-77
2022/01/22 09:08:25;;;;;;;;;35.00;30.50;;;;;7.67;57.43;103328.47;4973192;28;45475;-74
2022/01/22 09:10:52;;;;;;;;;38.00;31.25;;;;;7.63;57.54;103319.53;4992505;27;45466;-76
2022/01/22 09:13:19;;;;;;;;;33.50;30.50;;;;;7.70;57.21;103331.22;4993163;27;45767;-75
2022/01/22 09:15:45;;;;;;;;;35.75;29.25;;;;;7.55;57.63;103316.53;4972861;28;45648;-77
2022/01/22 09:18:11;;;;;;;;;35.25;29.50;;;;;7.68;57.27;103325.91;4994095;27;45405;-74
2022/01/22 09:23:03;;;;;;;;;36.75;31.25;;;;;7.36;57.41;103280.69;4990711;27;45599;-77
2022/01/22 09:25:29;;;;;;;;;40.00;27.00;;;;;6.74;57.56;103182.53;4990533;27;45524;-75
2022/01/22 09:27:54;;;;;;;;;32.25;29.75;;;;;7.59;57.77;103322.78;4973858;28;45404;-77
2022/01/22 09:30:21;;;;;;;;;35.50;31.50;;;;;7.77;57.58;103346.41;4990906;27;45424;-74
2022/01/22 09:32:47;;;;;;;;;32.00;27.25;;;;;7.63;57.58;103317.81;4972782;28;45973;-75
2022/01/22 09:35:13;;;;;;;;;37.50;29.50;;;;;7.25;57.61;103234.88;4990692;27;45916;-75
2022/01/22 09:37:38;;;;;;;;;33.75;29.25;;;;;7.09;57.34;103209.66;4987545;27;45389;-80
2022/01/22 09:40:05;;;;;;;;;32.50;28.50;;;;;7.97;58.06;103356.22;4985737;27;45429;-75
2022/01/22 09:42:30;;;;;;;;;28.25;25.75;;;;;8.08;59.95;103355.09;4992639;27;47471;-74
2022/01/22 09:44:56;;;;;;;;;32.50;27.75;;;;;8.16;57.42;103357.22;4981974;27;45342;-74
2022/01/22 09:47:22;;;;;;;;;25.25;22.25;;;;;7.62;63.91;103253.44;4978063;28;45372;-73
2022/01/22 09:49:48;;;;;;;;;33.75;26.00;;;;;7.84;59.06;103254.59;4978264;28;45581;-74
2022/01/22 09:52:14;;;;;;;;;30.25;26.25;;;;;8.48;58.12;103361.56;4977301;28;46153;-75
2022/01/22 09:54:41;;;;;;;;;30.00;27.25;;;;;8.51;57.31;103363.44;4977764;28;45887;-74
2022/01/22 09:57:08;;;;;;;;;36.50;26.75;;;;;8.54;58.40;103361.88;4977707;28;45210;-76
2022/01/22 09:59:34;;;;;;;;;32.25;29.25;;;;;8.56;56.35;103348.91;4977898;28;45455;-75
2022/01/22 10:02:07;;;;;;;;;33.00;28.75;;;;;8.55;55.98;103354.97;4989152;27;46386;-76
2022/01/22 10:04:39;;;;;;;;;30.25;26.50;;;;;7.95;55.79;103260.38;4972400;28;45747;-75
2022/01/22 10:07:05;;;;;;;;;29.25;26.50;;;;;8.40;55.74;103337.69;4975067;28;45704;-76
2022/01/22 10:09:46;;;;;;;;;35.50;27.25;;;;;7.98;55.81;103263.16;4975624;28;45249;-76
2022/01/22 10:12:16;;;;;;;;;36.00;31.00;;;;;8.50;55.89;103370.41;4973131;28;45676;-76
2022/01/22 10:15:05;;;;;;;;;29.25;27.50;;;;;8.47;55.71;103363.28;4973464;28;45639;-76
2022/01/22 10:17:46;;;;;;;;;29.50;24.25;;;;;8.51;55.77;103364.34;4976144;28;45470;-74
2022/01/22 10:20:21;;;;;;;;;26.50;21.50;;;;;8.53;55.72;103372.28;4972136;28;45394;-75
2022/01/22 10:22:47;;;;;;;;;29.25;24.75;;;;;8.34;55.94;103339.91;4973417;28;45624;-74
2022/01/22 10:25:27;;;;;;;;;35.00;27.50;;;;;8.07;55.18;103289.75;4973363;28;45676;-76
2022/01/22 10:28:22;;;;;;;;;37.50;28.50;;;;;8.47;55.77;103370.22;4973386;28;45486;-76
2022/01/22 10:30:52;;;;;;;;;25.25;23.75;;;;;8.53;55.30;103377.50;4973180;28;45326;-75
2022/01/22 10:33:35;;;;;;;;;28.50;22.75;;;;;8.08;55.10;103300.25;4976916;28;46270;-75
2022/01/22 10:36:11;;;;;;;;;30.00;23.25;;;;;8.18;55.34;103326.88;4976817;28;45561;-76
2022/01/22 10:38:44;;;;;;;;;27.75;26.25;;;;;8.43;55.42;103370.88;4972851;28;45464;-75
2022/01/22 10:41:16;;;;;;;;;28.50;24.50;;;;;8.45;55.01;103378.00;4955768;28;45659;-75
2022/01/22 10:43:55;;;;;;;;;27.50;24.25;;;;;8.15;54.89;103318.88;4972688;28;46870;-74
2022/01/22 10:46:33;;;;;;;;;27.50;20.75;;;;;8.40;54.93;103353.34;4972726;28;45376;-75
2022/01/22 10:49:10;;;;;;;;;30.50;26.75;;;;;8.19;54.88;103316.50;4973566;28;45493;-75
2022/01/22 10:51:51;;;;;;;;;25.50;18.75;;;;;8.54;55.07;103369.72;4972965;28;45430;-75
2022/01/22 10:54:24;;;;;;;;;32.25;26.75;;;;;8.54;54.93;103372.31;4971901;28;46581;-75
2022/01/22 10:56:51;;;;;;;;;31.25;27.50;;;;;8.33;54.73;103337.22;4973079;28;45340;-75
2022/01/22 10:59:19;;;;;;;;;24.75;21.25;;;;;8.48;55.17;103354.63;4955741;28;45748;-75
2022/01/22 11:01:51;;;;;;;;;27.75;24.25;;;;;8.58;55.10;103365.56;4973615;28;45449;-76
2022/01/22 11:04:21;;;;;;;;;27.75;26.50;;;;;8.40;54.50;103322.00;4976077;28;45500;-75
2022/01/22 11:07:17;;;;;;;;;30.75;26.25;;;;;8.59;54.49;103357.81;4976715;28;45637;-75
2022/01/22 11:09:44;;;;;;;;;29.25;23.25;;;;;8.35;54.34;103317.31;4972979;28;45557;-75
2022/01/22 11:12:10;;;;;;;;;29.25;22.75;;;;;8.23;54.39;103292.38;4973250;28;45344;-77
2022/01/22 11:14:37;;;;;;;;;27.75;27.25;;;;;8.41;54.17;103315.94;4972832;28;45739;-75
2022/01/22 11:17:06;;;;;;;;;30.50;28.00;;;;;7.82;54.76;103211.88;4972681;28;46088;-75
2022/01/22 11:19:33;;;;;;;;;27.25;23.00;;;;;8.67;54.67;103358.22;4972909;28;45738;-75
2022/01/22 11:22:18;;;;;;;;;29.75;28.25;;;;;8.69;54.78;103354.84;4973397;28;45450;-75
2022/01/22 11:24:49;;;;;;;;;35.50;29.00;;;;;8.31;54.84;103281.44;4972966;28;45371;-74
2022/01/22 11:27:18;;;;;;;;;33.50;27.50;;;;;8.72;54.10;103348.88;4972859;28;45755;-74
2022/01/22 11:29:51;;;;;;;;;26.50;22.00;;;;;8.73;54.33;103363.72;4955233;28;45481;-75
2022/01/22 11:32:20;;;;;;;;;35.00;28.25;;;;;8.73;54.42;103355.88;4956064;28;45457;-75
2022/01/22 11:34:49;;;;;;;;;28.75;25.00;;;;;8.74;54.40;103356.81;4976956;28;45497;-75
2022/01/22 11:37:25;;;;;;;;;26.50;23.25;;;;;8.28;54.74;103275.22;4976952;28;45477;-74
2022/01/22 11:40:13;;;;;;;;;33.00;26.25;;;;;8.76;54.90;103349.97;4971851;28;45588;-74
2022/01/22 11:43:06;;;;;;;;;26.75;20.25;;;;;8.51;54.37;103298.16;4973517;28;45521;-75
2022/01/22 11:45:38;;;;;;;;;28.00;24.00;;;;;8.78;54.17;103341.38;4976671;28;45599;-75
2022/01/22 11:48:26;;;;;;;;;34.00;28.50;;;;;8.58;54.52;103300.25;4976629;28;45397;-74
2022/01/22 11:50:54;;;;;;;;;27.25;26.25;;;;;8.55;54.45;103306.22;4972417;28;45499;-75
2022/01/22 11:53:34;;;;;;;;;31.75;27.75;;;;;8.06;54.12;103207.94;4974037;28;45389;-75
2022/01/22 11:56:16;;;;;;;;;32.50;30.00;;;;;8.23;54.14;103268.88;4976706;28;46239;-75
2022/01/22 11:59:02;;;;;;;;;42.00;33.00;;;;;8.65;54.44;103336.31;4955540;28;45477;-75
2022/01/22 12:02:00;;;;;;;;;30.50;28.00;;;;;8.64;54.84;103334.56;4972265;28;45761;-75
2022/01/22 12:04:27;;;;;;;;;34.00;31.75;;;;;8.66;54.52;103325.97;4972375;27;45478;-74
2022/01/22 12:07:01;;;;;;;;;29.50;27.50;;;;;8.67;54.56;103330.34;4971836;28;46466;-74
2022/01/22 12:09:32;;;;;;;;;34.00;28.75;;;;;7.78;54.75;103168.16;4972468;28;45434;-74
2022/01/22 12:15:03;;;;;;;;;37.75;31.25;;;;;8.51;54.31;103267.69;4971959;28;45670;-71
2022/01/22 12:17:47;;;;;;;;;25.75;22.75;;;;;8.69;54.59;103317.38;4975716;28;45521;-75
2022/01/22 12:20:43;;;;;;;;;35.00;31.25;;;;;8.65;54.55;103318.03;4974631;28;45594;-75
2022/01/22 12:23:14;;;;;;;;;38.25;28.75;;;;;8.60;54.56;103309.06;4971706;28;45541;-73
2022/01/22 12:25:40;;;;;;;;;30.00;29.00;;;;;8.66;54.69;103311.97;4953980;28;45731;-74
2022/01/22 12:28:10;;;;;;;;;34.50;29.00;;;;;8.27;54.44;103233.34;4971332;28;45885;-74
2022/01/22 12:30:43;;;;;;;;;34.25;28.75;;;;;8.76;54.30;103310.75;4972177;28;45565;-74
2022/01/22 12:33:15;;;;;;;;;34.50;31.75;;;;;8.77;54.58;103307.31;4971567;27;45556;-73
2022/01/22 12:35:44;;;;;;;;;30.00;28.50;;;;;8.73;54.20;103285.34;5045079;27;45457;-73
2022/01/22 12:38:36;;;;;;;;;35.00;30.50;;;;;8.79;54.13;103292.63;5096922;27;45381;-72
2022/01/22 12:41:35;;;;;;;;;29.75;26.75;;;;;8.54;53.57;103238.22;4999780;27;45682;-73
2022/01/22 12:44:45;;;;;;;;;39.00;30.75;;;;;8.32;53.78;103191.81;4990098;27;45558;-72
2022/01/22 12:47:13;;;;;;;;;32.00;26.50;;;;;8.91;53.96;103288.00;5097477;27;45485;-74
2022/01/22 12:49:39;;;;;;;;;30.25;26.25;;;;;8.96;54.07;103288.22;5097798;27;45457;-74
2022/01/22 12:52:09;;;;;;;;;29.00;25.50;;;;;8.69;54.02;103239.88;5097780;27;45555;-72
2022/01/22 12:54:42;;;;;;;;;26.25;22.25;;;;;8.82;53.44;103235.25;5094828;27;45391;-73
2022/01/22 12:57:13;;;;;;;;;29.50;25.50;;;;;8.62;53.89;103189.88;5093103;27;45415;-74
2022/01/22 13:00:20;;;;;;;;;27.75;22.00;;;;;8.22;53.40;103109.53;5079455;27;47911;-75
2022/01/22 13:02:57;;;;;;;;;25.50;22.25;;;;;9.21;53.77;103278.16;5094588;27;45600;-73
2022/01/22 13:05:28;;;;;;;;;27.75;26.25;;;;;8.85;53.25;103197.13;5075123;27;45562;-74